createdAt,value
2018-01-18T00:00:23.175Z,0
2018-01-18T00:01:23.144Z,0
2018-01-18T00:02:23.123Z,0
2018-01-18T00:03:23.074Z,0
2018-01-18T00:04:23.045Z,0
2018-01-18T00:05:23.020Z,0
2018-01-18T00:06:22.990Z,0
2018-01-18T00:07:22.961Z,0
2018-01-18T00:08:22.942Z,0
2018-01-18T00:09:22.890Z,0
2018-01-18T00:10:22.625Z,0
2018-01-18T00:11:22.356Z,0
2018-01-18T00:12:22.564Z,0
2018-01-18T00:13:22.292Z,0
2018-01-18T00:14:22.770Z,0
2018-01-18T00:15:22.710Z,0
2018-01-18T00:16:22.689Z,0
2018-01-18T00:17:22.668Z,0
2018-01-18T00:18:22.375Z,0
2018-01-18T00:19:22.396Z,0
2018-01-18T00:20:22.330Z,0
2018-01-18T00:21:22.536Z,0
2018-01-18T00:22:22.508Z,0
2018-01-18T00:23:22.473Z,0
2018-01-18T00:24:22.192Z,0
2018-01-18T00:25:22.412Z,0
2018-01-18T00:26:22.381Z,0
2018-01-18T00:27:22.368Z,0
2018-01-18T00:28:22.321Z,0
2018-01-18T00:29:22.059Z,0
2018-01-18T00:30:21.777Z,0
2018-01-18T00:31:22.237Z,0
2018-01-18T00:32:22.200Z,0
2018-01-18T00:33:22.228Z,0
2018-01-18T00:34:22.137Z,0
2018-01-18T00:35:22.115Z,0
2018-01-18T00:36:21.831Z,0
2018-01-18T00:37:22.050Z,0
2018-01-18T00:38:22.022Z,0
2018-01-18T00:39:22.083Z,0
2018-01-18T00:40:21.706Z,0
2018-01-18T00:41:21.922Z,0
2018-01-18T00:42:21.411Z,0
2018-01-18T00:43:21.867Z,0
2018-01-18T00:44:21.342Z,0
2018-01-18T00:45:21.558Z,0
2018-01-18T00:46:21.772Z,0
2018-01-18T00:47:21.498Z,0
2018-01-18T00:48:21.714Z,0
2018-01-18T00:49:21.688Z,0
2018-01-18T00:50:21.648Z,0
2018-01-18T00:51:21.652Z,0
2018-01-18T00:52:21.348Z,0
2018-01-18T00:53:21.312Z,0
2018-01-18T00:54:21.283Z,0
2018-01-18T00:55:21.259Z,0
2018-01-18T00:56:21.480Z,0
2018-01-18T00:57:21.438Z,0
2018-01-18T00:58:21.165Z,0
2018-01-18T00:59:21.136Z,0
2018-01-18T01:00:21.354Z,0
2018-01-18T01:01:21.321Z,0
2018-01-18T01:02:21.293Z,0
2018-01-18T01:03:21.260Z,0
2018-01-18T01:04:21.228Z,0
2018-01-18T01:05:21.196Z,0
2018-01-18T01:06:20.926Z,0
2018-01-18T01:07:21.143Z,0
2018-01-18T01:08:20.863Z,0
2018-01-18T01:09:21.088Z,0
2018-01-18T01:10:20.810Z,0
2018-01-18T01:11:20.774Z,0
2018-01-18T01:12:21.067Z,0
2018-01-18T01:13:20.966Z,0
2018-01-18T01:14:20.931Z,0
2018-01-18T01:15:20.900Z,0
2018-01-18T01:16:20.623Z,0
2018-01-18T01:17:20.592Z,0
2018-01-18T01:18:20.806Z,0
2018-01-18T01:19:20.289Z,0
2018-01-18T01:20:20.508Z,0
2018-01-18T01:21:20.477Z,0
2018-01-18T01:22:20.690Z,0
2018-01-18T01:23:20.660Z,0
2018-01-18T01:24:20.623Z,0
2018-01-18T01:25:20.352Z,0
2018-01-18T01:26:20.377Z,0
2018-01-18T01:27:20.538Z,0
2018-01-18T01:28:20.523Z,0
2018-01-18T01:29:20.236Z,0
2018-01-18T01:30:20.546Z,0
2018-01-18T01:31:20.462Z,0
2018-01-18T01:32:20.393Z,0
2018-01-18T01:33:20.111Z,0
2018-01-18T01:34:20.332Z,0
2018-01-18T01:35:20.049Z,0
2018-01-18T01:36:20.271Z,0
2018-01-18T01:37:19.989Z,0
2018-01-18T01:38:20.207Z,0
2018-01-18T01:39:19.686Z,0
2018-01-18T01:40:20.166Z,0
2018-01-18T01:41:20.111Z,0
2018-01-18T01:42:19.842Z,0
2018-01-18T01:43:19.807Z,0
2018-01-18T01:44:20.032Z,0
2018-01-18T01:45:20.003Z,0
2018-01-18T01:46:19.476Z,0
2018-01-18T01:47:19.939Z,0
2018-01-18T01:48:19.664Z,0
2018-01-18T01:49:19.387Z,0
2018-01-18T01:50:19.850Z,0
2018-01-18T01:51:19.816Z,0
2018-01-18T01:52:19.798Z,0
2018-01-18T01:53:19.516Z,0
2018-01-18T01:54:19.727Z,0
2018-01-18T01:55:19.696Z,0
2018-01-18T01:56:19.431Z,0
2018-01-18T01:57:19.463Z,0
2018-01-18T01:58:19.366Z,0
2018-01-18T01:59:19.334Z,0
2018-01-18T02:00:19.302Z,0
2018-01-18T02:01:19.274Z,0
2018-01-18T02:02:19.249Z,0
2018-01-18T02:03:19.457Z,0
2018-01-18T02:04:19.428Z,0
2018-01-18T02:05:19.405Z,0
2018-01-18T02:06:19.376Z,0
2018-01-18T02:07:19.349Z,0
2018-01-18T02:08:19.309Z,0
2018-01-18T02:09:19.285Z,0
2018-01-18T02:10:19.595Z,0
2018-01-18T02:11:19.223Z,0
2018-01-18T02:12:19.188Z,0
2018-01-18T02:13:18.912Z,0
2018-01-18T02:14:18.638Z,0
2018-01-18T02:15:19.103Z,0
2018-01-18T02:16:18.584Z,0
2018-01-18T02:17:19.038Z,0
2018-01-18T02:18:18.766Z,0
2018-01-18T02:19:18.981Z,0
2018-01-18T02:20:18.708Z,0
2018-01-18T02:21:18.921Z,0
2018-01-18T02:22:18.888Z,0
2018-01-18T02:23:18.869Z,0
2018-01-18T02:24:18.341Z,0
2018-01-18T02:25:18.564Z,0
2018-01-18T02:26:18.778Z,0
2018-01-18T02:27:18.495Z,0
2018-01-18T02:28:18.754Z,0
2018-01-18T02:29:18.683Z,0
2018-01-18T02:30:18.662Z,0
2018-01-18T02:31:18.624Z,0
2018-01-18T02:32:18.600Z,0
2018-01-18T02:33:18.330Z,0
2018-01-18T02:34:18.298Z,0
2018-01-18T02:35:18.256Z,0
2018-01-18T02:36:18.479Z,0
2018-01-18T02:37:18.449Z,0
2018-01-18T02:38:18.173Z,0
2018-01-18T02:39:18.392Z,0
2018-01-18T02:40:18.364Z,0
2018-01-18T02:41:18.331Z,0
2018-01-18T02:42:18.048Z,0
2018-01-18T02:43:18.271Z,0
2018-01-18T02:44:18.242Z,0
2018-01-18T02:45:17.967Z,0
2018-01-18T02:46:17.932Z,0
2018-01-18T02:47:18.148Z,0
2018-01-18T02:48:17.874Z,0
2018-01-18T02:49:18.094Z,0
2018-01-18T02:50:18.074Z,0
2018-01-18T02:51:17.790Z,0
2018-01-18T02:52:18.000Z,0
2018-01-18T02:53:17.769Z,0
2018-01-18T02:54:17.951Z,0
2018-01-18T02:55:17.916Z,0
2018-01-18T02:56:17.891Z,0
2018-01-18T02:57:17.858Z,0
2018-01-18T02:58:17.578Z,0
2018-01-18T02:59:17.788Z,0
2018-01-18T03:00:17.968Z,0
2018-01-18T03:01:17.733Z,0
2018-01-18T03:02:17.699Z,0
2018-01-18T03:03:17.676Z,0
2018-01-18T03:04:17.153Z,0
2018-01-18T03:05:17.615Z,0
2018-01-18T03:06:16.849Z,0
2018-01-18T03:07:17.553Z,0
2018-01-18T03:08:17.289Z,0
2018-01-18T03:09:17.249Z,0
2018-01-18T03:10:17.468Z,0
2018-01-18T03:11:17.190Z,0
2018-01-18T03:12:17.164Z,0
2018-01-18T03:13:17.132Z,0
2018-01-18T03:14:17.106Z,0
2018-01-18T03:15:17.316Z,0
2018-01-18T03:16:17.284Z,0
2018-01-18T03:17:17.256Z,0
2018-01-18T03:18:17.274Z,0
2018-01-18T03:19:16.957Z,0
2018-01-18T03:20:17.167Z,0
2018-01-18T03:21:16.892Z,0
2018-01-18T03:22:17.104Z,0
2018-01-18T03:23:17.073Z,0
2018-01-18T03:24:16.804Z,0
2018-01-18T03:25:17.017Z,0
2018-01-18T03:26:16.986Z,0
2018-01-18T03:27:16.712Z,0
2018-01-18T03:28:16.933Z,0
2018-01-18T03:29:16.657Z,0
2018-01-18T03:30:16.876Z,0
2018-01-18T03:31:16.840Z,0
2018-01-18T03:32:16.319Z,0
2018-01-18T03:33:16.780Z,0
2018-01-18T03:34:16.263Z,0
2018-01-18T03:35:16.719Z,0
2018-01-18T03:36:16.444Z,0
2018-01-18T03:37:16.659Z,0
2018-01-18T03:38:16.136Z,0
2018-01-18T03:39:16.355Z,0
2018-01-18T03:40:16.575Z,0
2018-01-18T03:41:16.291Z,0
2018-01-18T03:42:16.509Z,0
2018-01-18T03:43:16.480Z,0
2018-01-18T03:44:16.208Z,0
2018-01-18T03:45:16.423Z,0
2018-01-18T03:46:16.388Z,0
2018-01-18T03:47:16.362Z,0
2018-01-18T03:48:16.082Z,0
2018-01-18T03:49:16.353Z,0
2018-01-18T03:50:16.026Z,0
2018-01-18T03:51:16.241Z,0
2018-01-18T03:52:16.206Z,0
2018-01-18T03:53:16.192Z,0
2018-01-18T03:54:16.156Z,0
2018-01-18T03:55:16.126Z,0
2018-01-18T03:56:16.087Z,0
2018-01-18T03:57:16.208Z,0
2018-01-18T03:58:16.030Z,0
2018-01-18T03:59:15.752Z,0
2018-01-18T04:00:15.727Z,0
2018-01-18T04:01:15.939Z,0
2018-01-18T04:02:15.918Z,0
2018-01-18T04:03:15.882Z,0
2018-01-18T04:04:15.601Z,0
2018-01-18T04:05:15.828Z,0
2018-01-18T04:06:15.796Z,0
2018-01-18T04:07:15.515Z,0
2018-01-18T04:08:15.481Z,0
2018-01-18T04:09:15.452Z,0
2018-01-18T04:10:15.672Z,0
2018-01-18T04:11:15.749Z,0
2018-01-18T04:12:15.367Z,0
2018-01-18T04:13:15.585Z,0
2018-01-18T04:14:15.306Z,0
2018-01-18T04:15:15.517Z,0
2018-01-18T04:16:15.498Z,0
2018-01-18T04:17:14.965Z,0
2018-01-18T04:18:15.190Z,0
2018-01-18T04:19:15.399Z,0
2018-01-18T04:20:15.375Z,0
2018-01-18T04:21:15.092Z,0
2018-01-18T04:22:15.302Z,0
2018-01-18T04:23:15.034Z,0
2018-01-18T04:24:15.003Z,0
2018-01-18T04:25:14.974Z,0
2018-01-18T04:26:15.190Z,0
2018-01-18T04:27:14.666Z,0
2018-01-18T04:28:14.636Z,0
2018-01-18T04:29:15.097Z,0
2018-01-18T04:30:14.826Z,0
2018-01-18T04:31:14.793Z,0
2018-01-18T04:32:15.041Z,0
2018-01-18T04:33:14.728Z,0
2018-01-18T04:34:14.948Z,0
2018-01-18T04:35:14.916Z,0
2018-01-18T04:36:14.397Z,0
2018-01-18T04:37:14.368Z,0
2018-01-18T04:38:14.577Z,0
2018-01-18T04:39:14.794Z,0
2018-01-18T04:40:14.775Z,0
2018-01-18T04:41:14.489Z,0
2018-01-18T04:42:14.710Z,0
2018-01-18T04:43:14.679Z,0
2018-01-18T04:44:14.643Z,0
2018-01-18T04:45:14.368Z,0
2018-01-18T04:46:14.339Z,0
2018-01-18T04:47:14.556Z,0
2018-01-18T04:48:14.521Z,0
2018-01-18T04:49:14.271Z,0
2018-01-18T04:50:13.974Z,0
2018-01-18T04:51:14.186Z,0
2018-01-18T04:52:14.159Z,0
2018-01-18T04:53:14.124Z,0
2018-01-18T04:54:13.847Z,0
2018-01-18T04:55:14.067Z,0
2018-01-18T04:56:14.030Z,0
2018-01-18T04:57:14.006Z,0
2018-01-18T04:58:14.220Z,0
2018-01-18T04:59:13.948Z,0
2018-01-18T05:00:14.163Z,0
2018-01-18T05:01:14.122Z,0
2018-01-18T05:02:14.100Z,0
2018-01-18T05:03:14.066Z,0
2018-01-18T05:04:13.786Z,0
2018-01-18T05:05:14.007Z,0
2018-01-18T05:06:13.730Z,0
2018-01-18T05:07:13.943Z,0
2018-01-18T05:08:13.664Z,0
2018-01-18T05:09:13.889Z,0
2018-01-18T05:10:13.607Z,0
2018-01-18T05:11:13.579Z,0
2018-01-18T05:12:13.814Z,0
2018-01-18T05:13:13.516Z,0
2018-01-18T05:14:13.487Z,0
2018-01-18T05:15:13.457Z,0
2018-01-18T05:16:12.932Z,0
2018-01-18T05:17:13.654Z,0
2018-01-18T05:18:13.609Z,0
2018-01-18T05:19:13.574Z,0
2018-01-18T05:20:13.547Z,0
2018-01-18T05:21:13.617Z,0
2018-01-18T05:22:13.485Z,0
2018-01-18T05:23:13.450Z,0
2018-01-18T05:24:13.425Z,0
2018-01-18T05:25:13.143Z,0
2018-01-18T05:26:13.387Z,0
2018-01-18T05:27:13.335Z,0
2018-01-18T05:28:13.302Z,0
2018-01-18T05:29:13.028Z,0
2018-01-18T05:30:12.748Z,0
2018-01-18T05:31:12.963Z,0
2018-01-18T05:32:12.935Z,0
2018-01-18T05:33:12.909Z,0
2018-01-18T05:34:13.116Z,0
2018-01-18T05:35:13.092Z,0
2018-01-18T05:36:13.056Z,0
2018-01-18T05:37:13.029Z,0
2018-01-18T05:38:12.752Z,0
2018-01-18T05:39:12.967Z,0
2018-01-18T05:40:12.934Z,0
2018-01-18T05:41:12.413Z,0
2018-01-18T05:42:12.872Z,0
2018-01-18T05:43:12.841Z,0
2018-01-18T05:44:12.810Z,0
2018-01-18T05:45:12.589Z,0
2018-01-18T05:46:12.757Z,0
2018-01-18T05:47:12.234Z,0
2018-01-18T05:48:12.738Z,0
2018-01-18T05:49:12.417Z,0
2018-01-18T05:50:12.637Z,0
2018-01-18T05:51:12.649Z,0
2018-01-18T05:52:12.319Z,0
2018-01-18T05:53:12.543Z,0
2018-01-18T05:54:12.509Z,0
2018-01-18T05:55:12.232Z,0
2018-01-18T05:56:12.202Z,0
2018-01-18T05:57:12.172Z,0
2018-01-18T05:58:12.137Z,0
2018-01-18T05:59:12.107Z,0
2018-01-18T06:00:12.337Z,0
2018-01-18T06:01:12.294Z,0
2018-01-18T06:02:12.016Z,0
2018-01-18T06:03:12.235Z,0
2018-01-18T06:04:12.203Z,0
2018-01-18T06:05:11.730Z,0
2018-01-18T06:06:11.896Z,0
2018-01-18T06:07:12.113Z,0
2018-01-18T06:08:12.083Z,0
2018-01-18T06:09:12.053Z,0
2018-01-18T06:10:11.780Z,0
2018-01-18T06:11:11.990Z,0
2018-01-18T06:12:11.713Z,0
2018-01-18T06:13:11.682Z,0
2018-01-18T06:14:11.649Z,0
2018-01-18T06:15:12.868Z,0
2018-01-18T06:16:12.369Z,0
2018-01-18T06:17:12.095Z,0
2018-01-18T06:18:11.776Z,0
2018-01-18T06:19:11.740Z,0
2018-01-18T06:20:11.469Z,0
2018-01-18T06:21:11.434Z,0
2018-01-18T06:22:11.165Z,0
2018-01-18T06:23:11.379Z,0
2018-01-18T06:24:11.597Z,0
2018-01-18T06:25:11.561Z,0
2018-01-18T06:26:11.528Z,0
2018-01-18T06:27:11.501Z,0
2018-01-18T06:28:11.231Z,0
2018-01-18T06:29:11.445Z,0
2018-01-18T06:30:11.412Z,0
2018-01-18T06:31:11.143Z,0
2018-01-18T06:32:11.352Z,0
2018-01-18T06:33:11.074Z,0
2018-01-18T06:34:11.036Z,0
2018-01-18T06:35:11.268Z,0
2018-01-18T06:36:11.226Z,0
2018-01-18T06:37:11.204Z,0
2018-01-18T06:38:11.167Z,0
2018-01-18T06:39:10.647Z,0
2018-01-18T06:40:11.102Z,0
2018-01-18T06:41:11.078Z,0
2018-01-18T06:42:11.048Z,0
2018-01-18T06:43:10.770Z,0
2018-01-18T06:44:10.747Z,0
2018-01-18T06:45:10.961Z,0
2018-01-18T06:46:10.928Z,0
2018-01-18T06:47:10.657Z,0
2018-01-18T06:48:10.621Z,0
2018-01-18T06:49:10.590Z,0
2018-01-18T06:50:10.559Z,0
2018-01-18T06:51:10.532Z,0
2018-01-18T06:52:10.506Z,0
2018-01-18T06:53:10.715Z,0
2018-01-18T06:54:10.444Z,4
2018-01-18T06:55:10.659Z,4
2018-01-18T06:56:10.627Z,4
2018-01-18T06:57:10.599Z,4
2018-01-18T06:58:10.331Z,4
2018-01-18T06:59:10.533Z,4
2018-01-18T07:00:10.019Z,4
2018-01-18T07:01:10.479Z,8
2018-01-18T07:02:10.212Z,8
2018-01-18T07:03:09.927Z,8
2018-01-18T07:04:10.145Z,8
2018-01-18T07:05:10.363Z,8
2018-01-18T07:06:10.145Z,12
2018-01-18T07:07:10.050Z,12
2018-01-18T07:08:10.324Z,12
2018-01-18T07:09:10.404Z,12
2018-01-18T07:10:10.005Z,16
2018-01-18T07:11:09.933Z,20
2018-01-18T07:12:09.917Z,24
2018-01-18T07:13:09.873Z,40
2018-01-18T07:14:10.088Z,48
2018-01-18T07:15:09.571Z,60
2018-01-18T07:16:09.540Z,68
2018-01-18T07:17:09.765Z,32
2018-01-18T07:18:09.728Z,36
2018-01-18T07:19:09.957Z,36
2018-01-18T07:20:09.427Z,36
2018-01-18T07:21:09.885Z,36
2018-01-18T07:22:09.618Z,28
2018-01-18T07:23:09.577Z,36
2018-01-18T07:24:09.798Z,40
2018-01-18T07:25:09.522Z,52
2018-01-18T07:26:09.252Z,84
2018-01-18T07:27:09.716Z,100
2018-01-18T07:28:09.693Z,84
2018-01-18T07:29:09.402Z,148
2018-01-18T07:30:09.377Z,196
2018-01-18T07:31:09.346Z,248
2018-01-18T07:32:09.449Z,264
2018-01-18T07:33:09.303Z,256
2018-01-18T07:34:09.262Z,164
2018-01-18T07:35:09.240Z,144
2018-01-18T07:36:08.959Z,132
2018-01-18T07:37:09.420Z,156
2018-01-18T07:38:09.844Z,140
2018-01-18T07:39:09.122Z,180
2018-01-18T07:40:09.366Z,228
2018-01-18T07:41:09.305Z,272
2018-01-18T07:42:08.789Z,444
2018-01-18T07:43:09.002Z,388
2018-01-18T07:44:09.221Z,348
2018-01-18T07:45:08.946Z,424
2018-01-18T07:46:09.172Z,432
2018-01-18T07:47:08.885Z,332
2018-01-18T07:48:08.866Z,208
2018-01-18T07:49:09.048Z,232
2018-01-18T07:50:09.339Z,320
2018-01-18T07:51:09.155Z,340
2018-01-18T07:52:08.997Z,496
2018-01-18T07:53:08.972Z,708
2018-01-18T07:54:08.936Z,684
2018-01-18T07:55:08.910Z,612
2018-01-18T07:56:08.878Z,668
2018-01-18T07:57:08.855Z,592
2018-01-18T07:58:08.829Z,608
2018-01-18T07:59:08.874Z,664
2018-01-18T08:00:08.770Z,944
2018-01-18T08:01:08.741Z,888
2018-01-18T08:02:08.712Z,1100
2018-01-18T08:03:08.192Z,1432
2018-01-18T08:04:08.652Z,1428
2018-01-18T08:05:08.377Z,1236
2018-01-18T08:06:08.352Z,976
2018-01-18T08:07:08.961Z,780
2018-01-18T08:08:08.296Z,872
2018-01-18T08:09:08.514Z,804
2018-01-18T08:10:08.492Z,1012
2018-01-18T08:11:10.391Z,1500
2018-01-18T08:12:10.128Z,2032
2018-01-18T08:13:08.140Z,2240
2018-01-18T08:14:09.875Z,2452
2018-01-18T08:15:09.303Z,2344
2018-01-18T08:16:08.078Z,1668
2018-01-18T08:17:08.292Z,1280
2018-01-18T08:18:08.021Z,1272
2018-01-18T08:19:08.245Z,1880
2018-01-18T08:20:07.963Z,2244
2018-01-18T08:21:07.984Z,2412
2018-01-18T08:22:07.907Z,2608
2018-01-18T08:23:07.887Z,2752
2018-01-18T08:24:07.857Z,2460
2018-01-18T08:25:08.081Z,2452
2018-01-18T08:26:08.058Z,2636
2018-01-18T08:27:07.783Z,1952
2018-01-18T08:28:08.005Z,1552
2018-01-18T08:29:07.962Z,1628
2018-01-18T08:30:07.449Z,1808
2018-01-18T08:31:08.004Z,2448
2018-01-18T08:32:07.884Z,2108
2018-01-18T08:33:07.624Z,2036
2018-01-18T08:34:07.847Z,2172
2018-01-18T08:35:07.598Z,2136
2018-01-18T08:36:07.551Z,2100
2018-01-18T08:37:07.510Z,1708
2018-01-18T08:38:07.539Z,2148
2018-01-18T08:39:07.460Z,2896
2018-01-18T08:40:07.839Z,3752
2018-01-18T08:41:07.424Z,4492
2018-01-18T08:42:08.180Z,4856
2018-01-18T08:43:07.734Z,3700
2018-01-18T08:44:07.595Z,2188
2018-01-18T08:45:07.543Z,1676
2018-01-18T08:46:07.353Z,2048
2018-01-18T08:47:07.497Z,2468
2018-01-18T08:48:07.465Z,2560
2018-01-18T08:49:07.434Z,2492
2018-01-18T08:50:07.414Z,2172
2018-01-18T08:51:07.640Z,2508
2018-01-18T08:52:07.360Z,1724
2018-01-18T08:53:07.331Z,1124
2018-01-18T08:54:07.308Z,1400
2018-01-18T08:55:07.284Z,1816
2018-01-18T08:56:07.676Z,2988
2018-01-18T08:57:07.202Z,5620
2018-01-18T08:58:07.201Z,8184
2018-01-18T08:59:07.182Z,5156
2018-01-18T09:00:07.150Z,4172
2018-01-18T09:01:06.889Z,2788
2018-01-18T09:02:07.101Z,2284
2018-01-18T09:03:07.085Z,3276
2018-01-18T09:04:06.805Z,6820
2018-01-18T09:05:07.103Z,5524
2018-01-18T09:06:06.750Z,4268
2018-01-18T09:07:06.969Z,4024
2018-01-18T09:08:06.944Z,4620
2018-01-18T09:09:06.918Z,4164
2018-01-18T09:10:06.891Z,3340
2018-01-18T09:11:06.862Z,4772
2018-01-18T09:12:06.839Z,5296
2018-01-18T09:13:06.567Z,4760
2018-01-18T09:14:06.551Z,4536
2018-01-18T09:15:06.881Z,4248
2018-01-18T09:16:06.734Z,3536
2018-01-18T09:17:06.853Z,2136
2018-01-18T09:18:06.683Z,1212
2018-01-18T09:19:06.411Z,1264
2018-01-18T09:20:06.634Z,3092
2018-01-18T09:21:06.624Z,3432
2018-01-18T09:22:06.618Z,1844
2018-01-18T09:23:06.560Z,2332
2018-01-18T09:24:06.531Z,2264
2018-01-18T09:25:06.754Z,2776
2018-01-18T09:26:06.482Z,4204
2018-01-18T09:27:06.461Z,6004
2018-01-18T09:28:06.224Z,6824
2018-01-18T09:29:05.907Z,7196
2018-01-18T09:30:06.378Z,6740
2018-01-18T09:31:06.104Z,3696
2018-01-18T09:32:06.322Z,3488
2018-01-18T09:33:06.051Z,2936
2018-01-18T09:34:06.347Z,3940
2018-01-18T09:35:06.000Z,5028
2018-01-18T09:36:05.983Z,4788
2018-01-18T09:37:05.709Z,2636
2018-01-18T09:38:06.172Z,4068
2018-01-18T09:39:05.890Z,4764
2018-01-18T09:40:06.114Z,3148
2018-01-18T09:41:06.088Z,2920
2018-01-18T09:42:05.822Z,4120
2018-01-18T09:43:06.037Z,6668
2018-01-18T09:44:05.822Z,5696
2018-01-18T09:45:08.340Z,3552
2018-01-18T09:46:06.975Z,3220
2018-01-18T09:47:06.587Z,5832
2018-01-18T09:48:05.661Z,7888
2018-01-18T09:49:05.881Z,6868
2018-01-18T09:50:05.617Z,6084
2018-01-18T09:51:05.829Z,6700
2018-01-18T09:52:05.563Z,4288
2018-01-18T09:53:05.535Z,5808
2018-01-18T09:54:05.750Z,6764
2018-01-18T09:55:05.236Z,7720
2018-01-18T09:56:05.461Z,6844
2018-01-18T09:57:05.684Z,9484
2018-01-18T09:58:05.648Z,9344
2018-01-18T09:59:05.735Z,7476
2018-01-18T10:00:05.362Z,10580
2018-01-18T10:01:05.343Z,10972
2018-01-18T10:02:05.862Z,11864
2018-01-18T10:03:05.524Z,7932
2018-01-18T10:04:05.278Z,10052
2018-01-18T10:05:05.230Z,11384
2018-01-18T10:06:05.206Z,13688
2018-01-18T10:07:05.436Z,12468
2018-01-18T10:08:05.452Z,10320
2018-01-18T10:09:05.500Z,10612
2018-01-18T10:10:05.111Z,9412
2018-01-18T10:11:05.459Z,8512
2018-01-18T10:12:05.126Z,9948
2018-01-18T10:13:05.035Z,10168
2018-01-18T10:14:05.016Z,7456
2018-01-18T10:15:05.243Z,5652
2018-01-18T10:16:04.719Z,7688
2018-01-18T10:17:04.937Z,5964
2018-01-18T10:18:04.670Z,7604
2018-01-18T10:19:04.887Z,5208
2018-01-18T10:20:05.115Z,4496
2018-01-18T10:21:05.089Z,5808
2018-01-18T10:22:05.065Z,7276
2018-01-18T10:23:04.298Z,8148
2018-01-18T10:24:04.521Z,6664
2018-01-18T10:25:04.755Z,7692
2018-01-18T10:26:04.993Z,11452
2018-01-18T10:27:04.738Z,8700
2018-01-18T10:28:04.677Z,7928
2018-01-18T10:29:04.727Z,7984
2018-01-18T10:30:04.972Z,7292
2018-01-18T10:31:04.351Z,6032
2018-01-18T10:32:04.621Z,9288
2018-01-18T10:33:04.308Z,8140
2018-01-18T10:34:04.776Z,6456
2018-01-18T10:35:04.503Z,9528
2018-01-18T10:36:04.229Z,8388
2018-01-18T10:37:04.464Z,7232
2018-01-18T10:38:04.434Z,4484
2018-01-18T10:39:04.651Z,5552
2018-01-18T10:40:04.378Z,5384
2018-01-18T10:41:04.125Z,7120
2018-01-18T10:42:04.573Z,6336
2018-01-18T10:43:04.550Z,7808
2018-01-18T10:44:04.275Z,6800
2018-01-18T10:45:04.252Z,5100
2018-01-18T10:46:03.993Z,5632
2018-01-18T10:47:04.206Z,6048
2018-01-18T10:48:04.426Z,5652
2018-01-18T10:49:04.162Z,3660
2018-01-18T10:50:03.881Z,3652
2018-01-18T10:51:03.860Z,4584
2018-01-18T10:52:03.589Z,5532
2018-01-18T10:53:04.057Z,4456
2018-01-18T10:54:03.782Z,5068
2018-01-18T10:55:04.005Z,3708
2018-01-18T10:56:03.733Z,4188
2018-01-18T10:57:04.275Z,4600
2018-01-18T10:58:03.926Z,3896
2018-01-18T10:59:03.935Z,5488
2018-01-18T11:00:03.624Z,3912
2018-01-18T11:01:03.845Z,5124
2018-01-18T11:02:03.824Z,5652
2018-01-18T11:03:03.798Z,4980
2018-01-18T11:04:03.816Z,5460
2018-01-18T11:05:03.498Z,5148
2018-01-18T11:06:03.817Z,5244
2018-01-18T11:07:03.694Z,6732
2018-01-18T11:08:03.174Z,7248
2018-01-18T11:09:03.648Z,7332
2018-01-18T11:10:03.366Z,4644
2018-01-18T11:11:03.736Z,4632
2018-01-18T11:12:03.807Z,5368
2018-01-18T11:13:03.547Z,4976
2018-01-18T11:14:03.513Z,5264
2018-01-18T11:15:03.483Z,5572
2018-01-18T11:16:03.461Z,5520
2018-01-18T11:17:03.717Z,7668
2018-01-18T11:18:03.654Z,5576
2018-01-18T11:19:03.375Z,5576
2018-01-18T11:20:03.349Z,7756
2018-01-18T11:21:03.572Z,8108
2018-01-18T11:22:03.547Z,5536
2018-01-18T11:23:03.571Z,6212
2018-01-18T11:24:03.252Z,5724
2018-01-18T11:25:03.487Z,6524
2018-01-18T11:26:03.447Z,5524
2018-01-18T11:27:03.167Z,4920
2018-01-18T11:28:03.146Z,5752
2018-01-18T11:29:03.366Z,6000
2018-01-18T11:30:03.343Z,7400
2018-01-18T11:31:03.315Z,5780
2018-01-18T11:32:03.293Z,6640
2018-01-18T11:33:03.367Z,8336
2018-01-18T11:34:03.294Z,7984
2018-01-18T11:35:02.963Z,6304
2018-01-18T11:36:02.941Z,8532
2018-01-18T11:37:02.916Z,8896
2018-01-18T11:38:02.647Z,6964
2018-01-18T11:39:03.112Z,7940
2018-01-18T11:40:02.929Z,8316
2018-01-18T11:41:02.821Z,6712
2018-01-18T11:42:03.035Z,6276
2018-01-18T11:43:03.013Z,5168
2018-01-18T11:44:02.750Z,6660
2018-01-18T11:45:02.972Z,6716
2018-01-18T11:46:02.705Z,9404
2018-01-18T11:47:02.929Z,4744
2018-01-18T11:48:02.893Z,3676
2018-01-18T11:49:02.866Z,4032
2018-01-18T11:50:02.849Z,4580
2018-01-18T11:51:02.570Z,5776
2018-01-18T11:52:02.849Z,6200
2018-01-18T11:53:02.292Z,4416
2018-01-18T11:54:03.088Z,4320
2018-01-18T11:55:02.725Z,6800
2018-01-18T11:56:02.532Z,5164
2018-01-18T11:57:02.426Z,4512
2018-01-18T11:58:02.647Z,5092
2018-01-18T11:59:02.621Z,4052
2018-01-18T12:00:02.383Z,4760
2018-01-18T12:01:02.320Z,4784
2018-01-18T12:02:02.545Z,5156
2018-01-18T12:03:02.516Z,5748
2018-01-18T12:04:02.492Z,5332
2018-01-18T12:05:02.463Z,5116
2018-01-18T12:06:02.609Z,4920
2018-01-18T12:07:03.351Z,5252
2018-01-18T12:08:01.819Z,5208
2018-01-18T12:09:02.122Z,5236
2018-01-18T12:10:02.102Z,6204
2018-01-18T12:11:02.072Z,5792
2018-01-18T12:12:02.291Z,6188
2018-01-18T12:13:02.325Z,6000
2018-01-18T12:14:02.244Z,6904
2018-01-18T12:15:01.970Z,6800
2018-01-18T12:16:01.941Z,5208
2018-01-18T12:17:02.172Z,8276
2018-01-18T12:18:02.131Z,6376
2018-01-18T12:19:02.121Z,8840
2018-01-18T12:20:02.088Z,5956
2018-01-18T12:21:01.816Z,5108
2018-01-18T12:22:02.033Z,5640
2018-01-18T12:23:02.005Z,6028
2018-01-18T12:24:01.982Z,8428
2018-01-18T12:25:01.954Z,7828
2018-01-18T12:26:01.686Z,5600
2018-01-18T12:27:01.654Z,6928
2018-01-18T12:28:01.873Z,8740
2018-01-18T12:29:01.853Z,4388
2018-01-18T12:30:01.581Z,4136
2018-01-18T12:31:01.795Z,3380
2018-01-18T12:32:01.523Z,4128
2018-01-18T12:33:01.500Z,4524
2018-01-18T12:34:01.469Z,3172
2018-01-18T12:35:01.694Z,2832
2018-01-18T12:36:01.424Z,3212
2018-01-18T12:37:01.873Z,3392
2018-01-18T12:38:01.375Z,3288
2018-01-18T12:39:01.095Z,3832
2018-01-18T12:40:01.555Z,2788
2018-01-18T12:41:01.538Z,2516
2018-01-18T12:42:01.502Z,3208
2018-01-18T12:43:01.503Z,2384
2018-01-18T12:44:01.471Z,2724
2018-01-18T12:45:01.173Z,2592
2018-01-18T12:46:01.153Z,2696
2018-01-18T12:47:01.368Z,2568
2018-01-18T12:48:01.102Z,2464
2018-01-18T12:49:01.360Z,3776
2018-01-18T12:50:01.034Z,3828
2018-01-18T12:51:01.014Z,2308
2018-01-18T12:52:00.989Z,2284
2018-01-18T12:53:01.217Z,2124
2018-01-18T12:54:01.176Z,2640
2018-01-18T12:55:01.153Z,2972
2018-01-18T12:56:00.877Z,2700
2018-01-18T12:57:01.100Z,2148
2018-01-18T12:58:01.070Z,1844
2018-01-18T12:59:01.050Z,2492
2018-01-18T13:00:00.780Z,3544
2018-01-18T13:01:00.987Z,4764
2018-01-18T13:02:00.715Z,4768
2018-01-18T13:03:00.937Z,5188
2018-01-18T13:04:00.918Z,3544
2018-01-18T13:05:00.885Z,2400
2018-01-18T13:06:00.851Z,4136
2018-01-18T13:07:00.844Z,6020
2018-01-18T13:08:00.801Z,6392
2018-01-18T13:09:00.769Z,6720
2018-01-18T13:10:00.785Z,5128
2018-01-18T13:11:00.469Z,4580
2018-01-18T13:12:02.659Z,2888
2018-01-18T13:13:01.322Z,3304
2018-01-18T13:14:02.881Z,5060
2018-01-18T13:15:03.046Z,5764
2018-01-18T13:16:02.276Z,5580
2018-01-18T13:17:03.083Z,4704
2018-01-18T13:18:02.474Z,3172
2018-01-18T13:19:00.823Z,3120
2018-01-18T13:20:00.480Z,5372
2018-01-18T13:21:00.200Z,7104
2018-01-18T13:22:00.463Z,6660
2018-01-18T13:23:00.145Z,6200
2018-01-18T13:24:00.112Z,5236
2018-01-18T13:25:00.098Z,3832
2018-01-18T13:26:00.715Z,3628
2018-01-18T13:26:59.789Z,4024
2018-01-18T13:28:00.009Z,3864
2018-01-18T13:28:59.982Z,4292
2018-01-18T13:30:00.194Z,4584
2018-01-18T13:30:59.927Z,4688
2018-01-18T13:32:00.151Z,4516
2018-01-18T13:32:59.874Z,5120
2018-01-18T13:33:59.597Z,5264
2018-01-18T13:35:00.065Z,5568
2018-01-18T13:36:00.089Z,4292
2018-01-18T13:36:59.762Z,4820
2018-01-18T13:37:59.995Z,4752
2018-01-18T13:38:59.712Z,3836
2018-01-18T13:39:59.688Z,3756
2018-01-18T13:40:59.412Z,3724
2018-01-18T13:41:59.382Z,3844
2018-01-18T13:42:59.599Z,3924
2018-01-18T13:43:59.906Z,4012
2018-01-18T13:44:59.795Z,3980
2018-01-18T13:45:59.525Z,3976
2018-01-18T13:46:59.498Z,4004
2018-01-18T13:47:59.483Z,3960
2018-01-18T13:48:59.439Z,4392
2018-01-18T13:49:59.409Z,4740
2018-01-18T13:50:59.482Z,5300
2018-01-18T13:51:59.607Z,5896
2018-01-18T13:52:59.330Z,5972
2018-01-18T13:53:59.547Z,6440
2018-01-18T13:54:59.522Z,6044
2018-01-18T13:55:59.511Z,5840
2018-01-18T13:56:59.465Z,7784
2018-01-18T13:57:58.946Z,8808
2018-01-18T13:58:59.417Z,8588
2018-01-18T13:59:59.395Z,7104
2018-01-18T14:00:59.359Z,6652
2018-01-18T14:01:59.407Z,6292
2018-01-18T14:02:59.067Z,6044